sensor_id;sensor_type;location;lat;lon;timestamp;temperature;humidity
51783;DHT22;37845;53.196;5.638;2023-05-24T00:00:07;10.40;99.90
51783;DHT22;37845;53.196;5.638;2023-05-24T00:02:39;10.40;99.90
51783;DHT22;37845;53.196;5.638;2023-05-24T00:15:20;9.30;99.90
51783;DHT22;37845;53.196;5.638;2023-05-24T00:17:45;11.20;99.90
51783;DHT22;37845;53.196;5.638;2023-05-24T00:20:11;10.30;99.90
51783;DHT22;37845;53.196;5.638;2023-05-24T00:22:40;10.30;99.90
51783;DHT22;37845;53.196;5.638;2023-05-24T00:25:06;10.30;99.90
51783;DHT22;37845;53.196;5.638;2023-05-24T00:27:50;10.30;99.90
51783;DHT22;37845;53.196;5.638;2023-05-24T00:42:06;10.30;99.90
51783;DHT22;37845;53.196;5.638;2023-05-24T00:44:31;10.20;99.90
51783;DHT22;37845;53.196;5.638;2023-05-24T00:47:00;10.20;99.90
51783;DHT22;37845;53.196;5.638;2023-05-24T00:49:26;10.30;99.90
51783;DHT22;37845;53.196;5.638;2023-05-24T00:51:52;10.30;99.90
51783;DHT22;37845;53.196;5.638;2023-05-24T00:54:18;10.30;99.90
51783;DHT22;37845;53.196;5.638;2023-05-24T00:56:44;10.20;99.90
51783;DHT22;37845;53.196;5.638;2023-05-24T00:59:10;10.30;99.90
51783;DHT22;37845;53.196;5.638;2023-05-24T01:01:39;10.20;99.90
51783;DHT22;37845;53.196;5.638;2023-05-24T01:04:06;10.30;99.90
51783;DHT22;37845;53.196;5.638;2023-05-24T01:06:36;10.20;99.90
51783;DHT22;37845;53.196;5.638;2023-05-24T01:11:52;10.30;99.90
51783;DHT22;37845;53.196;5.638;2023-05-24T01:14:28;10.20;99.90
51783;DHT22;37845;53.196;5.638;2023-05-24T01:27:29;10.30;99.90
51783;DHT22;37845;53.196;5.638;2023-05-24T01:35:40;10.30;99.90
51783;DHT22;37845;53.196;5.638;2023-05-24T01:38:25;10.30;99.90
51783;DHT22;37845;53.196;5.638;2023-05-24T01:41:04;10.30;99.90
51783;DHT22;37845;53.196;5.638;2023-05-24T01:44:22;10.30;99.90
51783;DHT22;37845;53.196;5.638;2023-05-24T01:46:56;10.30;99.90
51783;DHT22;37845;53.196;5.638;2023-05-24T01:49:39;10.30;99.90
51783;DHT22;37845;53.196;5.638;2023-05-24T01:52:14;10.30;99.90
51783;DHT22;37845;53.196;5.638;2023-05-24T01:54:44;10.20;99.90
51783;DHT22;37845;53.196;5.638;2023-05-24T01:57:12;10.30;99.90
51783;DHT22;37845;53.196;5.638;2023-05-24T01:59:40;10.20;99.90
51783;DHT22;37845;53.196;5.638;2023-05-24T02:02:06;10.00;99.90
51783;DHT22;37845;53.196;5.638;2023-05-24T02:04:32;10.20;99.90
51783;DHT22;37845;53.196;5.638;2023-05-24T02:07:00;10.20;99.90
51783;DHT22;37845;53.196;5.638;2023-05-24T02:09:26;10.10;99.90
51783;DHT22;37845;53.196;5.638;2023-05-24T02:11:51;10.20;99.90
51783;DHT22;37845;53.196;5.638;2023-05-24T02:14:17;10.20;99.90
51783;DHT22;37845;53.196;5.638;2023-05-24T02:16:46;10.10;99.90
51783;DHT22;37845;53.196;5.638;2023-05-24T02:19:12;10.10;99.90
51783;DHT22;37845;53.196;5.638;2023-05-24T02:21:38;10.20;99.90
51783;DHT22;37845;53.196;5.638;2023-05-24T02:24:05;10.20;99.90
51783;DHT22;37845;53.196;5.638;2023-05-24T02:26:32;10.10;99.90
51783;DHT22;37845;53.196;5.638;2023-05-24T02:29:01;10.20;99.90
51783;DHT22;37845;53.196;5.638;2023-05-24T02:31:26;10.10;99.90
51783;DHT22;37845;53.196;5.638;2023-05-24T02:33:56;10.10;99.90
51783;DHT22;37845;53.196;5.638;2023-05-24T02:36:22;10.10;99.90
51783;DHT22;37845;53.196;5.638;2023-05-24T02:38:49;10.10;99.90
51783;DHT22;37845;53.196;5.638;2023-05-24T02:41:15;10.10;99.90
51783;DHT22;37845;53.196;5.638;2023-05-24T02:43:45;10.10;99.90
51783;DHT22;37845;53.196;5.638;2023-05-24T02:46:11;10.10;99.90
51783;DHT22;37845;53.196;5.638;2023-05-24T02:48:37;10.10;99.90
51783;DHT22;37845;53.196;5.638;2023-05-24T02:51:02;10.10;99.90
51783;DHT22;37845;53.196;5.638;2023-05-24T02:53:33;10.10;99.90
51783;DHT22;37845;53.196;5.638;2023-05-24T02:55:59;10.00;99.90
51783;DHT22;37845;53.196;5.638;2023-05-24T03:14:20;9.90;99.90
51783;DHT22;37845;53.196;5.638;2023-05-24T03:16:51;9.90;99.90
51783;DHT22;37845;53.196;5.638;2023-05-24T03:27:00;10.00;99.90
51783;DHT22;37845;53.196;5.638;2023-05-24T03:55:31;8.90;99.90
51783;DHT22;37845;53.196;5.638;2023-05-24T03:57:57;10.00;99.90
51783;DHT22;37845;53.196;5.638;2023-05-24T04:00:22;10.00;99.90
51783;DHT22;37845;53.196;5.638;2023-05-24T04:02:48;10.00;99.90
51783;DHT22;37845;53.196;5.638;2023-05-24T04:05:13;10.10;99.90
51783;DHT22;37845;53.196;5.638;2023-05-24T04:07:39;10.10;99.90
51783;DHT22;37845;53.196;5.638;2023-05-24T04:10:05;10.10;99.90
51783;DHT22;37845;53.196;5.638;2023-05-24T04:12:34;10.10;99.90
51783;DHT22;37845;53.196;5.638;2023-05-24T04:15:00;10.10;99.90
51783;DHT22;37845;53.196;5.638;2023-05-24T04:17:30;10.20;99.90
51783;DHT22;37845;53.196;5.638;2023-05-24T04:19:59;10.10;99.90
51783;DHT22;37845;53.196;5.638;2023-05-24T04:22:28;10.10;99.90
51783;DHT22;37845;53.196;5.638;2023-05-24T04:24:54;9.60;99.90
51783;DHT22;37845;53.196;5.638;2023-05-24T04:27:20;10.10;99.90
51783;DHT22;37845;53.196;5.638;2023-05-24T04:29:46;10.10;99.90
51783;DHT22;37845;53.196;5.638;2023-05-24T04:32:14;10.10;99.90
51783;DHT22;37845;53.196;5.638;2023-05-24T04:34:43;10.10;99.90
51783;DHT22;37845;53.196;5.638;2023-05-24T04:37:10;10.20;99.90
51783;DHT22;37845;53.196;5.638;2023-05-24T04:39:35;10.20;99.90
51783;DHT22;37845;53.196;5.638;2023-05-24T04:42:01;10.20;99.90
51783;DHT22;37845;53.196;5.638;2023-05-24T04:44:47;10.20;99.90
51783;DHT22;37845;53.196;5.638;2023-05-24T04:47:13;10.30;99.90
51783;DHT22;37845;53.196;5.638;2023-05-24T04:49:39;10.30;99.90
51783;DHT22;37845;53.196;5.638;2023-05-24T04:52:05;10.30;99.90
51783;DHT22;37845;53.196;5.638;2023-05-24T04:54:31;10.70;99.90
51783;DHT22;37845;53.196;5.638;2023-05-24T04:56:57;10.40;99.90
51783;DHT22;37845;53.196;5.638;2023-05-24T04:59:23;10.40;99.90
51783;DHT22;37845;53.196;5.638;2023-05-24T05:01:49;10.40;99.90
51783;DHT22;37845;53.196;5.638;2023-05-24T05:04:14;10.40;99.90
51783;DHT22;37845;53.196;5.638;2023-05-24T05:06:41;10.50;99.90
51783;DHT22;37845;53.196;5.638;2023-05-24T05:09:11;10.60;99.90
51783;DHT22;37845;53.196;5.638;2023-05-24T05:11:39;10.60;99.90
51783;DHT22;37845;53.196;5.638;2023-05-24T05:14:05;10.70;99.90
51783;DHT22;37845;53.196;5.638;2023-05-24T05:16:34;10.70;99.90
51783;DHT22;37845;53.196;5.638;2023-05-24T05:19:00;10.80;99.90
51783;DHT22;37845;53.196;5.638;2023-05-24T05:21:26;10.80;99.90
51783;DHT22;37845;53.196;5.638;2023-05-24T05:23:51;10.80;99.90
51783;DHT22;37845;53.196;5.638;2023-05-24T05:26:17;10.80;99.90
51783;DHT22;37845;53.196;5.638;2023-05-24T05:28:45;10.80;99.90
51783;DHT22;37845;53.196;5.638;2023-05-24T05:31:11;10.90;99.90
51783;DHT22;37845;53.196;5.638;2023-05-24T05:33:36;10.90;99.90
51783;DHT22;37845;53.196;5.638;2023-05-24T05:36:02;10.90;99.90
51783;DHT22;37845;53.196;5.638;2023-05-24T05:38:28;10.90;99.90
51783;DHT22;37845;53.196;5.638;2023-05-24T05:40:53;10.90;99.90
51783;DHT22;37845;53.196;5.638;2023-05-24T05:43:19;11.00;99.90
51783;DHT22;37845;53.196;5.638;2023-05-24T05:45:45;11.00;99.90
51783;DHT22;37845;53.196;5.638;2023-05-24T05:48:10;11.00;99.90
51783;DHT22;37845;53.196;5.638;2023-05-24T05:50:36;11.00;99.90
51783;DHT22;37845;53.196;5.638;2023-05-24T05:53:02;11.00;99.90
51783;DHT22;37845;53.196;5.638;2023-05-24T05:55:34;11.80;99.90
51783;DHT22;37845;53.196;5.638;2023-05-24T05:58:02;11.00;99.90
51783;DHT22;37845;53.196;5.638;2023-05-24T06:00:28;11.10;99.90
51783;DHT22;37845;53.196;5.638;2023-05-24T06:02:54;11.10;99.90
51783;DHT22;37845;53.196;5.638;2023-05-24T06:05:19;11.10;99.90
51783;DHT22;37845;53.196;5.638;2023-05-24T06:07:45;11.20;99.90
51783;DHT22;37845;53.196;5.638;2023-05-24T06:10:11;11.20;99.90
51783;DHT22;37845;53.196;5.638;2023-05-24T06:12:37;11.30;99.90
51783;DHT22;37845;53.196;5.638;2023-05-24T06:15:05;11.40;99.90
51783;DHT22;37845;53.196;5.638;2023-05-24T06:17:33;11.40;99.90
51783;DHT22;37845;53.196;5.638;2023-05-24T06:20:04;11.50;99.90
51783;DHT22;37845;53.196;5.638;2023-05-24T06:22:32;11.50;99.90
51783;DHT22;37845;53.196;5.638;2023-05-24T06:24:57;11.60;99.90
51783;DHT22;37845;53.196;5.638;2023-05-24T06:27:23;11.60;99.90
51783;DHT22;37845;53.196;5.638;2023-05-24T06:29:49;11.70;99.90
51783;DHT22;37845;53.196;5.638;2023-05-24T06:32:14;11.80;99.90
51783;DHT22;37845;53.196;5.638;2023-05-24T06:34:40;11.80;99.90
51783;DHT22;37845;53.196;5.638;2023-05-24T06:37:06;11.90;99.90
51783;DHT22;37845;53.196;5.638;2023-05-24T06:39:35;12.00;99.90
51783;DHT22;37845;53.196;5.638;2023-05-24T06:42:02;11.90;99.90
51783;DHT22;37845;53.196;5.638;2023-05-24T06:44:28;12.00;99.90
51783;DHT22;37845;53.196;5.638;2023-05-24T06:46:59;12.00;99.90
51783;DHT22;37845;53.196;5.638;2023-05-24T06:49:24;12.10;99.90
51783;DHT22;37845;53.196;5.638;2023-05-24T06:51:50;12.10;99.90
51783;DHT22;37845;53.196;5.638;2023-05-24T06:54:19;12.20;99.90
51783;DHT22;37845;53.196;5.638;2023-05-24T06:56:45;12.20;99.90
51783;DHT22;37845;53.196;5.638;2023-05-24T06:59:11;12.30;99.90
51783;DHT22;37845;53.196;5.638;2023-05-24T07:01:36;12.30;99.90
51783;DHT22;37845;53.196;5.638;2023-05-24T07:04:04;12.40;99.90
51783;DHT22;37845;53.196;5.638;2023-05-24T07:06:30;12.40;99.90
51783;DHT22;37845;53.196;5.638;2023-05-24T07:08:57;12.40;99.90
51783;DHT22;37845;53.196;5.638;2023-05-24T07:11:23;12.50;99.90
51783;DHT22;37845;53.196;5.638;2023-05-24T07:13:48;12.60;99.90
51783;DHT22;37845;53.196;5.638;2023-05-24T07:16:14;12.60;99.90
51783;DHT22;37845;53.196;5.638;2023-05-24T07:18:40;12.70;99.90
51783;DHT22;37845;53.196;5.638;2023-05-24T07:21:06;12.70;99.90
51783;DHT22;37845;53.196;5.638;2023-05-24T07:23:34;12.70;99.90
51783;DHT22;37845;53.196;5.638;2023-05-24T07:26:01;12.00;99.90
51783;DHT22;37845;53.196;5.638;2023-05-24T07:28:29;12.90;99.90
51783;DHT22;37845;53.196;5.638;2023-05-24T07:30:55;12.90;99.90
51783;DHT22;37845;53.196;5.638;2023-05-24T07:33:21;13.00;99.90
51783;DHT22;37845;53.196;5.638;2023-05-24T07:35:49;12.90;99.90
51783;DHT22;37845;53.196;5.638;2023-05-24T07:38:17;12.90;99.90
51783;DHT22;37845;53.196;5.638;2023-05-24T07:40:42;12.90;99.90
51783;DHT22;37845;53.196;5.638;2023-05-24T07:43:10;12.90;99.90
51783;DHT22;37845;53.196;5.638;2023-05-24T07:45:39;13.10;99.90
51783;DHT22;37845;53.196;5.638;2023-05-24T07:48:04;13.20;99.90
51783;DHT22;37845;53.196;5.638;2023-05-24T07:50:36;13.20;99.90
51783;DHT22;37845;53.196;5.638;2023-05-24T07:53:02;13.30;99.90
51783;DHT22;37845;53.196;5.638;2023-05-24T07:55:30;13.40;99.90
51783;DHT22;37845;53.196;5.638;2023-05-24T07:57:56;13.30;99.90
51783;DHT22;37845;53.196;5.638;2023-05-24T08:00:22;13.50;99.90
51783;DHT22;37845;53.196;5.638;2023-05-24T08:02:47;13.50;99.90
51783;DHT22;37845;53.196;5.638;2023-05-24T08:05:13;13.50;99.90
51783;DHT22;37845;53.196;5.638;2023-05-24T08:07:41;13.50;99.90
51783;DHT22;37845;53.196;5.638;2023-05-24T08:10:07;13.60;99.90
51783;DHT22;37845;53.196;5.638;2023-05-24T08:12:39;13.80;99.90
51783;DHT22;37845;53.196;5.638;2023-05-24T08:15:04;13.80;99.90
51783;DHT22;37845;53.196;5.638;2023-05-24T08:17:34;13.80;99.90
51783;DHT22;37845;53.196;5.638;2023-05-24T08:19:59;13.70;99.90
51783;DHT22;37845;53.196;5.638;2023-05-24T08:22:25;13.80;99.90
51783;DHT22;37845;53.196;5.638;2023-05-24T08:24:51;13.60;99.90
51783;DHT22;37845;53.196;5.638;2023-05-24T08:27:16;13.60;99.90
51783;DHT22;37845;53.196;5.638;2023-05-24T08:29:45;13.60;99.90
51783;DHT22;37845;53.196;5.638;2023-05-24T08:32:11;13.50;99.90
51783;DHT22;37845;53.196;5.638;2023-05-24T08:34:40;13.60;99.90
51783;DHT22;37845;53.196;5.638;2023-05-24T08:37:05;13.50;99.90
51783;DHT22;37845;53.196;5.638;2023-05-24T08:39:33;13.50;99.90
51783;DHT22;37845;53.196;5.638;2023-05-24T08:41:59;13.60;99.90
51783;DHT22;37845;53.196;5.638;2023-05-24T08:44:25;13.60;99.90
51783;DHT22;37845;53.196;5.638;2023-05-24T08:46:51;13.70;99.90
51783;DHT22;37845;53.196;5.638;2023-05-24T08:49:17;13.80;99.90
51783;DHT22;37845;53.196;5.638;2023-05-24T08:51:43;13.80;99.90
51783;DHT22;37845;53.196;5.638;2023-05-24T08:54:09;13.80;99.90
51783;DHT22;37845;53.196;5.638;2023-05-24T08:56:37;13.90;99.90
51783;DHT22;37845;53.196;5.638;2023-05-24T08:59:13;13.80;99.90
51783;DHT22;37845;53.196;5.638;2023-05-24T09:01:42;13.70;99.90
51783;DHT22;37845;53.196;5.638;2023-05-24T09:04:08;13.60;99.90
51783;DHT22;37845;53.196;5.638;2023-05-24T09:06:34;13.50;99.90
51783;DHT22;37845;53.196;5.638;2023-05-24T09:09:01;13.60;99.90
51783;DHT22;37845;53.196;5.638;2023-05-24T09:11:27;13.50;99.90
51783;DHT22;37845;53.196;5.638;2023-05-24T09:13:56;13.60;99.90
51783;DHT22;37845;53.196;5.638;2023-05-24T09:16:21;13.60;99.90
51783;DHT22;37845;53.196;5.638;2023-05-24T09:18:51;13.70;99.90
51783;DHT22;37845;53.196;5.638;2023-05-24T09:21:16;14.00;99.90
51783;DHT22;37845;53.196;5.638;2023-05-24T09:23:43;14.00;99.90
51783;DHT22;37845;53.196;5.638;2023-05-24T09:26:09;14.00;99.90
51783;DHT22;37845;53.196;5.638;2023-05-24T09:30:19;14.00;99.90
51783;DHT22;37845;53.196;5.638;2023-05-24T09:32:57;14.00;99.90
51783;DHT22;37845;53.196;5.638;2023-05-24T09:35:23;14.10;99.90
51783;DHT22;37845;53.196;5.638;2023-05-24T09:37:53;14.30;99.90
51783;DHT22;37845;53.196;5.638;2023-05-24T09:40:25;14.40;99.90
51783;DHT22;37845;53.196;5.638;2023-05-24T09:43:09;13.80;99.90
51783;DHT22;37845;53.196;5.638;2023-05-24T09:45:45;14.40;99.90
51783;DHT22;37845;53.196;5.638;2023-05-24T09:48:15;14.50;99.90
51783;DHT22;37845;53.196;5.638;2023-05-24T09:51:02;14.40;99.90
51783;DHT22;37845;53.196;5.638;2023-05-24T09:53:32;14.30;99.90
51783;DHT22;37845;53.196;5.638;2023-05-24T09:56:05;14.30;99.90
51783;DHT22;37845;53.196;5.638;2023-05-24T09:58:31;14.40;99.90
51783;DHT22;37845;53.196;5.638;2023-05-24T10:01:08;14.40;99.90
51783;DHT22;37845;53.196;5.638;2023-05-24T10:03:54;14.30;99.90
51783;DHT22;37845;53.196;5.638;2023-05-24T10:06:20;14.40;99.90
51783;DHT22;37845;53.196;5.638;2023-05-24T10:08:46;14.20;99.90
51783;DHT22;37845;53.196;5.638;2023-05-24T10:11:15;14.20;99.90
51783;DHT22;37845;53.196;5.638;2023-05-24T10:13:41;14.20;99.90
51783;DHT22;37845;53.196;5.638;2023-05-24T10:16:10;14.20;99.90
51783;DHT22;37845;53.196;5.638;2023-05-24T10:21:10;13.70;99.90
51783;DHT22;37845;53.196;5.638;2023-05-24T10:23:36;14.30;99.90
51783;DHT22;37845;53.196;5.638;2023-05-24T10:26:05;14.30;99.90
51783;DHT22;37845;53.196;5.638;2023-05-24T10:28:34;14.40;99.90
51783;DHT22;37845;53.196;5.638;2023-05-24T10:31:04;14.40;99.90
51783;DHT22;37845;53.196;5.638;2023-05-24T10:33:35;14.60;99.90
51783;DHT22;37845;53.196;5.638;2023-05-24T10:36:04;14.80;99.90
51783;DHT22;37845;53.196;5.638;2023-05-24T10:38:31;14.10;99.90
51783;DHT22;37845;53.196;5.638;2023-05-24T10:40:57;15.00;99.90
51783;DHT22;37845;53.196;5.638;2023-05-24T10:43:23;15.10;99.90
51783;DHT22;37845;53.196;5.638;2023-05-24T10:45:50;15.10;99.90
51783;DHT22;37845;53.196;5.638;2023-05-24T10:50:45;15.00;99.90
51783;DHT22;37845;53.196;5.638;2023-05-24T10:53:15;14.90;99.90
51783;DHT22;37845;53.196;5.638;2023-05-24T10:55:59;14.90;99.90
51783;DHT22;37845;53.196;5.638;2023-05-24T11:01:45;14.80;99.90
51783;DHT22;37845;53.196;5.638;2023-05-24T11:04:19;14.80;99.90
51783;DHT22;37845;53.196;5.638;2023-05-24T11:06:53;14.70;99.90
51783;DHT22;37845;53.196;5.638;2023-05-24T11:09:20;14.80;99.90
51783;DHT22;37845;53.196;5.638;2023-05-24T11:12:08;14.70;99.90
51783;DHT22;37845;53.196;5.638;2023-05-24T11:14:38;14.80;99.90
51783;DHT22;37845;53.196;5.638;2023-05-24T11:17:05;14.80;99.90
51783;DHT22;37845;53.196;5.638;2023-05-24T11:19:52;14.50;99.90
51783;DHT22;37845;53.196;5.638;2023-05-24T11:22:20;14.80;99.90
51783;DHT22;37845;53.196;5.638;2023-05-24T11:24:46;14.90;99.90
51783;DHT22;37845;53.196;5.638;2023-05-24T11:41:06;14.60;99.90
51783;DHT22;37845;53.196;5.638;2023-05-24T11:43:32;15.50;99.90
51783;DHT22;37845;53.196;5.638;2023-05-24T11:45:58;15.50;99.90
51783;DHT22;37845;53.196;5.638;2023-05-24T11:48:23;15.30;99.90
51783;DHT22;37845;53.196;5.638;2023-05-24T11:50:49;15.50;99.90
51783;DHT22;37845;53.196;5.638;2023-05-24T11:53:17;15.50;99.90
51783;DHT22;37845;53.196;5.638;2023-05-24T11:55:43;15.70;99.90
51783;DHT22;37845;53.196;5.638;2023-05-24T11:58:21;15.70;99.90
51783;DHT22;37845;53.196;5.638;2023-05-24T12:00:51;15.80;99.90
51783;DHT22;37845;53.196;5.638;2023-05-24T12:03:17;15.70;99.90
51783;DHT22;37845;53.196;5.638;2023-05-24T12:05:43;15.70;99.90
51783;DHT22;37845;53.196;5.638;2023-05-24T12:08:10;15.60;99.90
51783;DHT22;37845;53.196;5.638;2023-05-24T12:10:43;15.70;99.90
51783;DHT22;37845;53.196;5.638;2023-05-24T12:13:20;15.70;99.90
51783;DHT22;37845;53.196;5.638;2023-05-24T12:15:54;15.80;99.90
51783;DHT22;37845;53.196;5.638;2023-05-24T12:18:28;15.70;99.90
51783;DHT22;37845;53.196;5.638;2023-05-24T12:23:27;15.90;99.90
51783;DHT22;37845;53.196;5.638;2023-05-24T12:26:00;15.70;99.90
51783;DHT22;37845;53.196;5.638;2023-05-24T12:28:30;15.90;99.90
51783;DHT22;37845;53.196;5.638;2023-05-24T12:30:56;15.90;99.90
51783;DHT22;37845;53.196;5.638;2023-05-24T12:33:23;15.90;99.90
51783;DHT22;37845;53.196;5.638;2023-05-24T12:35:49;15.90;99.90
51783;DHT22;37845;53.196;5.638;2023-05-24T12:38:22;16.10;99.90
51783;DHT22;37845;53.196;5.638;2023-05-24T12:40:51;16.00;99.90
51783;DHT22;37845;53.196;5.638;2023-05-24T12:43:19;16.00;99.90
51783;DHT22;37845;53.196;5.638;2023-05-24T12:45:45;16.00;99.90
51783;DHT22;37845;53.196;5.638;2023-05-24T12:48:11;16.10;99.90
51783;DHT22;37845;53.196;5.638;2023-05-24T12:50:40;16.00;99.90
51783;DHT22;37845;53.196;5.638;2023-05-24T12:53:05;16.10;99.90
51783;DHT22;37845;53.196;5.638;2023-05-24T12:55:34;16.00;99.90
51783;DHT22;37845;53.196;5.638;2023-05-24T12:57:59;16.00;99.90
51783;DHT22;37845;53.196;5.638;2023-05-24T13:00:30;15.90;99.90
51783;DHT22;37845;53.196;5.638;2023-05-24T13:02:59;16.00;99.90
51783;DHT22;37845;53.196;5.638;2023-05-24T13:05:25;16.20;99.90
51783;DHT22;37845;53.196;5.638;2023-05-24T13:07:52;16.10;99.90
51783;DHT22;37845;53.196;5.638;2023-05-24T13:10:19;16.40;99.90
51783;DHT22;37845;53.196;5.638;2023-05-24T13:12:45;16.30;99.90
51783;DHT22;37845;53.196;5.638;2023-05-24T13:15:11;16.30;99.90
51783;DHT22;37845;53.196;5.638;2023-05-24T13:17:37;16.30;99.90
51783;DHT22;37845;53.196;5.638;2023-05-24T13:22:38;15.80;99.90
51783;DHT22;37845;53.196;5.638;2023-05-24T13:25:05;16.10;99.90
51783;DHT22;37845;53.196;5.638;2023-05-24T13:27:32;16.20;99.90
51783;DHT22;37845;53.196;5.638;2023-05-24T13:29:58;16.30;99.90
51783;DHT22;37845;53.196;5.638;2023-05-24T13:32:23;16.40;99.90
51783;DHT22;37845;53.196;5.638;2023-05-24T13:34:52;16.50;99.90
51783;DHT22;37845;53.196;5.638;2023-05-24T13:37:17;16.30;99.90
51783;DHT22;37845;53.196;5.638;2023-05-24T13:39:44;16.40;99.90
51783;DHT22;37845;53.196;5.638;2023-05-24T13:42:09;16.40;99.90
51783;DHT22;37845;53.196;5.638;2023-05-24T13:44:36;16.60;99.90
51783;DHT22;37845;53.196;5.638;2023-05-24T14:05:27;16.50;99.90
51783;DHT22;37845;53.196;5.638;2023-05-24T14:10:30;16.30;99.90
51783;DHT22;37845;53.196;5.638;2023-05-24T14:24:43;16.60;99.90
51783;DHT22;37845;53.196;5.638;2023-05-24T14:29:47;16.70;99.90
51783;DHT22;37845;53.196;5.638;2023-05-24T14:32:13;16.60;99.90
51783;DHT22;37845;53.196;5.638;2023-05-24T14:34:56;16.70;99.90
51783;DHT22;37845;53.196;5.638;2023-05-24T14:42:44;16.40;99.90
51783;DHT22;37845;53.196;5.638;2023-05-24T15:00:58;15.80;99.90
51783;DHT22;37845;53.196;5.638;2023-05-24T15:03:23;16.50;99.90
51783;DHT22;37845;53.196;5.638;2023-05-24T15:05:49;16.60;99.90
51783;DHT22;37845;53.196;5.638;2023-05-24T15:08:16;16.50;99.90
51783;DHT22;37845;53.196;5.638;2023-05-24T15:10:42;16.50;99.90
51783;DHT22;37845;53.196;5.638;2023-05-24T15:13:14;16.20;99.90
51783;DHT22;37845;53.196;5.638;2023-05-24T15:15:40;16.70;99.90
51783;DHT22;37845;53.196;5.638;2023-05-24T15:18:06;16.70;99.90
51783;DHT22;37845;53.196;5.638;2023-05-24T15:20:32;16.80;99.90
51783;DHT22;37845;53.196;5.638;2023-05-24T15:23:02;16.80;99.90
51783;DHT22;37845;53.196;5.638;2023-05-24T15:25:28;16.90;99.90
51783;DHT22;37845;53.196;5.638;2023-05-24T15:27:57;16.80;99.90
51783;DHT22;37845;53.196;5.638;2023-05-24T15:30:23;17.00;99.90
51783;DHT22;37845;53.196;5.638;2023-05-24T15:32:49;16.90;99.90
51783;DHT22;37845;53.196;5.638;2023-05-24T15:35:16;16.90;99.90
51783;DHT22;37845;53.196;5.638;2023-05-24T15:37:48;16.90;99.90
51783;DHT22;37845;53.196;5.638;2023-05-24T15:40:14;17.10;99.90
51783;DHT22;37845;53.196;5.638;2023-05-24T15:42:40;17.00;99.90
51783;DHT22;37845;53.196;5.638;2023-05-24T15:45:08;16.30;99.90
51783;DHT22;37845;53.196;5.638;2023-05-24T15:47:34;16.40;99.90
51783;DHT22;37845;53.196;5.638;2023-05-24T15:50:05;16.40;99.90
51783;DHT22;37845;53.196;5.638;2023-05-24T15:52:33;16.40;99.90
51783;DHT22;37845;53.196;5.638;2023-05-24T15:54:59;16.50;99.90
51783;DHT22;37845;53.196;5.638;2023-05-24T15:57:26;16.50;99.90
51783;DHT22;37845;53.196;5.638;2023-05-24T15:59:55;16.40;99.90
51783;DHT22;37845;53.196;5.638;2023-05-24T16:02:21;16.30;99.90
51783;DHT22;37845;53.196;5.638;2023-05-24T16:04:46;16.30;99.90
51783;DHT22;37845;53.196;5.638;2023-05-24T16:07:12;16.10;99.90
51783;DHT22;37845;53.196;5.638;2023-05-24T16:09:38;16.10;99.90
51783;DHT22;37845;53.196;5.638;2023-05-24T16:12:07;16.20;99.90
51783;DHT22;37845;53.196;5.638;2023-05-24T16:14:33;16.20;99.90
51783;DHT22;37845;53.196;5.638;2023-05-24T16:17:00;16.10;99.90
51783;DHT22;37845;53.196;5.638;2023-05-24T16:19:27;16.20;99.90
51783;DHT22;37845;53.196;5.638;2023-05-24T16:21:53;16.00;99.90
51783;DHT22;37845;53.196;5.638;2023-05-24T16:24:22;16.00;99.90
51783;DHT22;37845;53.196;5.638;2023-05-24T16:26:47;16.10;99.90
51783;DHT22;37845;53.196;5.638;2023-05-24T16:29:16;16.20;99.90
51783;DHT22;37845;53.196;5.638;2023-05-24T16:31:45;16.30;99.90
51783;DHT22;37845;53.196;5.638;2023-05-24T16:34:10;16.30;99.90
51783;DHT22;37845;53.196;5.638;2023-05-24T16:36:39;16.00;99.90
51783;DHT22;37845;53.196;5.638;2023-05-24T16:39:05;16.10;99.90
51783;DHT22;37845;53.196;5.638;2023-05-24T16:41:31;16.10;99.90
51783;DHT22;37845;53.196;5.638;2023-05-24T16:44:05;16.30;99.90
51783;DHT22;37845;53.196;5.638;2023-05-24T16:46:32;16.40;99.90
51783;DHT22;37845;53.196;5.638;2023-05-24T16:48:58;16.50;99.90
51783;DHT22;37845;53.196;5.638;2023-05-24T16:51:24;16.70;99.90
51783;DHT22;37845;53.196;5.638;2023-05-24T16:53:50;16.90;99.90
51783;DHT22;37845;53.196;5.638;2023-05-24T16:56:16;17.30;99.90
51783;DHT22;37845;53.196;5.638;2023-05-24T16:58:42;17.20;99.90
51783;DHT22;37845;53.196;5.638;2023-05-24T17:01:08;16.90;99.90
51783;DHT22;37845;53.196;5.638;2023-05-24T17:03:34;16.60;99.90
51783;DHT22;37845;53.196;5.638;2023-05-24T17:06:00;16.40;99.90
51783;DHT22;37845;53.196;5.638;2023-05-24T17:08:33;16.20;99.90
51783;DHT22;37845;53.196;5.638;2023-05-24T17:11:03;16.20;99.90
51783;DHT22;37845;53.196;5.638;2023-05-24T17:13:29;16.20;99.90
51783;DHT22;37845;53.196;5.638;2023-05-24T17:15:56;16.30;99.90
51783;DHT22;37845;53.196;5.638;2023-05-24T17:18:23;16.30;99.90
51783;DHT22;37845;53.196;5.638;2023-05-24T17:21:00;16.20;99.90
51783;DHT22;37845;53.196;5.638;2023-05-24T17:23:28;16.20;99.90
51783;DHT22;37845;53.196;5.638;2023-05-24T17:25:58;16.20;99.90
51783;DHT22;37845;53.196;5.638;2023-05-24T17:28:32;16.20;99.90
51783;DHT22;37845;53.196;5.638;2023-05-24T17:30:59;16.10;99.90
51783;DHT22;37845;53.196;5.638;2023-05-24T17:33:26;16.20;99.90
51783;DHT22;37845;53.196;5.638;2023-05-24T17:35:53;16.10;99.90
51783;DHT22;37845;53.196;5.638;2023-05-24T17:38:23;16.00;99.90
51783;DHT22;37845;53.196;5.638;2023-05-24T17:40:50;16.30;99.90
51783;DHT22;37845;53.196;5.638;2023-05-24T17:43:25;16.30;99.90
51783;DHT22;37845;53.196;5.638;2023-05-24T17:45:57;16.30;99.90
51783;DHT22;37845;53.196;5.638;2023-05-24T17:48:32;16.30;99.90
51783;DHT22;37845;53.196;5.638;2023-05-24T17:50:59;16.40;99.90
51783;DHT22;37845;53.196;5.638;2023-05-24T17:53:26;16.30;99.90
51783;DHT22;37845;53.196;5.638;2023-05-24T17:55:53;16.50;99.90
51783;DHT22;37845;53.196;5.638;2023-05-24T17:58:19;16.70;99.90
51783;DHT22;37845;53.196;5.638;2023-05-24T18:00:48;16.70;99.90
51783;DHT22;37845;53.196;5.638;2023-05-24T18:03:14;16.80;99.90
51783;DHT22;37845;53.196;5.638;2023-05-24T18:05:40;16.80;99.90
51783;DHT22;37845;53.196;5.638;2023-05-24T18:08:06;16.60;99.90
51783;DHT22;37845;53.196;5.638;2023-05-24T18:10:33;16.50;99.90
51783;DHT22;37845;53.196;5.638;2023-05-24T18:12:59;16.60;99.90
51783;DHT22;37845;53.196;5.638;2023-05-24T18:15:24;16.50;99.90
51783;DHT22;37845;53.196;5.638;2023-05-24T18:17:52;16.50;99.90
51783;DHT22;37845;53.196;5.638;2023-05-24T18:20:21;16.40;99.90
51783;DHT22;37845;53.196;5.638;2023-05-24T18:22:48;16.30;99.90
51783;DHT22;37845;53.196;5.638;2023-05-24T18:25:15;16.10;99.90
51783;DHT22;37845;53.196;5.638;2023-05-24T18:27:42;16.10;99.90
51783;DHT22;37845;53.196;5.638;2023-05-24T18:30:08;15.80;99.90